Wake Island Airfield, Wake Island

4:26 PM WAKT on March 03, 2015 (GMT +1200)
Wake Island Army Air Field | Change Station
CLOSE
Current Station
Airport
Location: Wake Island, Wake Island Army,
Elevation: 13 ft
Nearby Weather Stations

Elev 13 ft 19.28 °N, 166.64 °E | Updated 28 minutes ago

Scattered Clouds
Scattered Clouds
82 °F
Feels Like 84 °F
N
21
Wind Variable Wind from ENE

Today
High -- | Low -- °F
--% Chance of Precip.
Yesterday
High -- | Low -- °F
Precip. -- in
7:11 AM 6:59 PM
Waxing Gibbous, 94% visible
Pressure 29.95 in
Visibility 6.2 miles
Clouds Few 2600 ft
Scattered Clouds 4100 ft
Scattered Clouds 5000 ft
Heat Index 84 °F
Dew Point 68 °F
Humidity 62%
Rainfall 0.00 in
Snow Depth Not available.
UV 4 out of 12
Pollen Not available.
Air Quality Not available.
Flu Activity Not available.
METAR PWAK 030358Z AUTO 07018KT 9999 FEW026 SCT041 SCT050 28/20 A2993 RMK AO2 RAB28E38 SLP142 P0000 T02750197

More Conditions Fewer Conditions

Pressure 29.95 in
Visibility 6.2 miles
Clouds Few 2600 ft
Scattered Clouds 4100 ft
Scattered Clouds 5000 ft
Heat Index 84 °F
Dew Point 68 °F
Humidity 62%
Rainfall 0.00 in
Snow Depth Not available.
UV 4 out of 12
Pollen Not available.
Air Quality Not available.
Flu Activity Not available.
METAR PWAK 030358Z AUTO 07018KT 9999 FEW026 SCT041 SCT050 28/20 A2993 RMK AO2 RAB28E38 SLP142 P0000 T02750197

More Conditions Fewer Conditions

10-Day Weather Forecast

Almanac

Astronomy

Mar. 03, 2015 Rise Set
Actual Time
Civil Twilight
Nautical Twilight
Astronomical Twilight
Moon
Length of Visible Light
Length of Day
Tomorrow will be .
, % of the Moon is Illuminated

Today's Extremes

Country Highs Country Lows

Community

WunderPhotos

Upload Photos

1,802,064 photos uploaded!

WunderBlogs® & News

Nearby

Air Quality

  Air Quality AQ Index Pollutant
Not available.

Snow Depth

Station Depth Elevation

Earthquake Activity

City Distance Mag. Time & Date
Minimum magnitude displayed is 2.5.

Coastal Water Temperatures

Place Temperature

Nearby Weather Stations